• Join FlightAware (Why Join?)
  • Login
  • US Flag 
04:01AM EST


 

Airport Tracker/Info


-or-


 

Live Flight TrackerFlight Track Log ✈ DAL268 ✈ 07-Sep-2013 ✈ KSFO - KJFK

Flight Track Log - Related Links

Times and Time Zones

All times are in EDT time to prevent confusion due to time zone crossing. See the DAL268 flight status page for this flight to view local times or setup timezone preferences in your user account.

Time Position Orientation Groundspeed Altitude Reporting Facility
EDT Latitude Longitude Course Direction KTS MPH feet Rate Location/Type
02:27PM 37.6141 -122.3760 360° North 125 144  Level FlightAware ADS-B
02:27PM 37.6244 -122.3690 28° Northeast 177 204 200 1,320 Climbing FlightAware ADS-B
02:27PM 37.6319 -122.3640 28° Northeast 172 198 600 2,280 Climbing FlightAware ADS-B
02:27PM 37.6340 -122.3620 37° Northeast 175 201 700 2,640 Climbing FlightAware ADS-B
02:27PM 37.6376 -122.3580 41° Northeast 177 204 1,000 2,700 Climbing FlightAware ADS-B
02:27PM 37.6397 -122.3550 49° Northeast 175 201 1,200 3,000 Climbing FlightAware ADS-B
02:27PM 37.6414 -122.3520 54° Northeast 172 198 1,400 3,420 Climbing FlightAware ADS-B
02:28PM 37.6435 -122.3490 49° Northeast 173 199 1,600 2,100 Climbing FlightAware ADS-B
02:28PM 37.6521 -122.3370 48° Northeast 176 203 2,100 2,040 Climbing FlightAware ADS-B
02:28PM 37.6609 -122.3250 47° Northeast 177 204 2,700 2,220 Climbing FlightAware ADS-B
02:28PM 37.6681 -122.3150 48° Northeast 181 208 3,200 1,500 Climbing FlightAware ADS-B
02:29PM 37.6790 -122.2990 49° Northeast 205 236 3,500 1,080 Climbing FlightAware ADS-B
02:29PM 37.6894 -122.2850 47° Northeast 223 257 3,800 1,200 Climbing FlightAware ADS-B
02:29PM 37.7044 -122.2640 48° Northeast 258 297 4,200 1,500 Climbing FlightAware ADS-B
02:29PM 37.7178 -122.2460 47° Northeast 273 314 4,700 2,460 Climbing FlightAware ADS-B
02:30PM 37.7351 -122.2220 48° Northeast 274 315 5,700 2,820 Climbing FlightAware ADS-B
02:30PM 37.7537 -122.2000 43° Northeast 280 322 6,600 2,640 Climbing FlightAware ADS-B
02:30PM 37.7633 -122.1910 37° Northeast 285 328 7,000 2,280 Climbing FlightAware ADS-B
02:31PM 37.7812 -122.1730 38° Northeast 294 338 7,600 2,280 Climbing FlightAware ADS-B
02:31PM 37.7990 -122.1560 37° Northeast 296 341 8,300 2,400 Climbing FlightAware ADS-B
02:31PM 37.8158 -122.1400 37° Northeast 301 346 8,900 2,400 Climbing FlightAware ADS-B
02:31PM 37.8332 -122.1240 36° Northeast 307 353 9,500 2,100 Climbing FlightAware ADS-B
02:32PM 37.8684 -122.0910 37° Northeast 323 372 10,500 1,680 Climbing FlightAware ADS-B
02:32PM 37.9063 -122.0560 36° Northeast 348 400 11,200 1,800 Climbing FlightAware ADS-B
02:33PM 37.9463 -122.0190 36° Northeast 357 411 12,300 2,220 Climbing FlightAware ADS-B
02:33PM 37.9879 -121.9800 36° Northeast 361 415 13,500 2,160 Climbing FlightAware ADS-B
02:34PM 38.0701 -121.9030 36° Northeast 366 421 15,700 1,920 Climbing FlightAware ADS-B
02:35PM 38.1062 -121.8680 37° Northeast 387 445 16,300 1,140 Climbing FlightAware ADS-B
02:35PM 38.1571 -121.7900 50° Northeast 419 482 17,000 1,200 Climbing FlightAware ADS-B
02:36PM 38.1926 -121.7220 56° Northeast 429 494 17,800 1,680 Climbing FlightAware ADS-B
02:37PM 38.2267 -121.6570 56° Northeast 435 501 18,800 1,740 Climbing FlightAware ADS-B
02:37PM 38.2604 -121.5930 56° Northeast 442 509 19,600 1,680 Climbing FlightAware ADS-B
02:38PM 38.3070 -121.5030 57° Northeast 447 514 20,900 1,740 Climbing FlightAware
02:38PM 38.3370 -121.4460 56° Northeast 452 520 21,600 1,740 Climbing FlightAware ADS-B
02:39PM 38.3734 -121.3770 56° Northeast 458 527 22,500 1,500 Climbing FlightAware ADS-B
02:39PM 38.4300 -121.2700 56° Northeast 467 537 23,600 1,500 Climbing FlightAware
02:40PM 38.4451 -121.2410 56° Northeast 460 529 24,000 1,500 Climbing FlightAware ADS-B
02:40PM 38.4828 -121.1700 56° Northeast 474 545 24,700 1,440 Climbing FlightAware ADS-B
02:41PM 38.5200 -121.0990 56° Northeast 477 549 25,500 1,380 Climbing FlightAware ADS-B
02:41PM 38.5590 -121.0250 56° Northeast 481 554 26,200 900 Climbing FlightAware
02:42PM 38.6040 -120.9380 56° Northeast 494 568 26,600 660 Climbing FlightAware
02:42PM 38.6160 -120.9150 56° Northeast 480 552 26,700 840 Climbing FlightAware ADS-B
02:43PM 38.6745 -120.8020 56° Northeast 480 552 27,400 1,200 Climbing FlightAware ADS-B
02:43PM 38.7240 -120.7060 57° Northeast 503 579 28,400 1,560 Climbing FlightAware ADS-B
02:44PM 38.7626 -120.6320 56° Northeast 500 575 29,200 1,440 Climbing FlightAware ADS-B
02:45PM 38.8230 -120.5140 57° Northeast 498 573 30,300 1,260 Climbing FlightAware
02:45PM 38.8710 -120.4210 56° Northeast 498 573 31,000 1,140 Climbing FlightAware
02:46PM 38.9150 -120.3340 57° Northeast 499 574 31,700 900 Climbing FlightAware
02:46PM 38.9610 -120.2440 57° Northeast 506 582 32,100 780 Climbing FlightAware
02:47PM 39.0020 -120.1650 56° Northeast 508 585 32,600 960 Climbing FlightAware
02:48PM 39.0480 -120.0740 57° Northeast 508 585 33,200 960 Climbing FlightAware
02:48PM 39.0940 -119.9830 57° Northeast 508 585 33,800 900 Climbing FlightAware
02:49PM 39.1400 -119.8920 57° Northeast 509 586 34,300 840 Climbing FlightAware
02:49PM 39.1820 -119.8090 57° Northeast 511 588 34,800 660 Climbing FlightAware
02:50PM 39.2280 -119.7170 57° Northeast 500 575 35,100 120 Climbing FlightAware
02:51PM 39.2720 -119.6290 57° Northeast 497 572 35,000 -120 Descending FlightAware
02:51PM 39.3170 -119.5400 57° Northeast 499 574 35,000  Level FlightAware
02:52PM 39.3570 -119.4580 58° Northeast 501 577 35,000  Level FlightAware
02:52PM 39.3970 -119.3790 57° Northeast 503 579 35,000  Level FlightAware
02:53PM 39.4480 -119.2760 57° Northeast 505 581 35,000  Level FlightAware
02:53PM 39.4930 -119.1850 57° Northeast 507 583 35,000  Level FlightAware
02:54PM 39.5380 -119.0930 58° Northeast 508 585 35,000  Level FlightAware
02:55PM 39.5780 -119.0100 58° Northeast 509 586 35,000  Level FlightAware
02:55PM 39.6240 -118.9170 57° Northeast 511 588 35,000  Level FlightAware
02:56PM 39.6690 -118.8240 58° Northeast 510 587 35,000  Level FlightAware
02:56PM 39.7140 -118.7330 57° Northeast 509 586 35,000  Level FlightAware
02:57PM 39.7550 -118.6480 58° Northeast 509 586 35,000  Level FlightAware
02:58PM 39.8000 -118.5560 57° Northeast 509 586 35,000  Level FlightAware
02:58PM 39.8450 -118.4630 58° Northeast 509 586 35,000  Level FlightAware
02:59PM 39.8850 -118.3790 58° Northeast 508 585 35,000  Level FlightAware
02:59PM 39.9290 -118.2870 58° Northeast 508 585 35,000  Level FlightAware
03:00PM 39.9740 -118.1930 58° Northeast 508 585 35,000  Level FlightAware
03:00PM 40.0120 -118.1130 58° Northeast 509 586 35,000  Level FlightAware
03:01PM 40.0600 -118.0120 58° Northeast 509 586 35,000  Level FlightAware
03:02PM 40.1050 -117.9190 58° Northeast 509 586 35,000  Level FlightAware
03:02PM 40.1470 -117.8300 58° Northeast 509 586 35,000  Level FlightAware
03:03PM 40.1890 -117.7410 58° Northeast 510 587 35,000  Level FlightAware
03:03PM 40.2290 -117.6560 58° Northeast 510 587 35,000  Level FlightAware
03:04PM 40.2670 -117.5760 58° Northeast 510 587 35,000  Level FlightAware
03:05PM 40.3060 -117.4960 57° Northeast 510 587 35,000  Level FlightAware
03:05PM 40.3440 -117.4150 58° Northeast 510 587 35,000  Level FlightAware
03:06PM 40.3820 -117.3350 58° Northeast 510 587 35,000  Level FlightAware
03:06PM 40.4200 -117.2540 58° Northeast 510 587 35,000  Level FlightAware
03:07PM 40.4590 -117.1740 57° Northeast 510 587 35,000  Level FlightAware
03:08PM 40.4980 -117.0910 58° Northeast 510 587 35,000  Level FlightAware
03:08PM 40.5360 -117.0110 58° Northeast 510 587 35,000  Level FlightAware
03:09PM 40.5750 -116.9280 58° Northeast 510 587 35,000  Level FlightAware
03:09PM 40.6140 -116.8470 58° Northeast 510 587 35,000  Level FlightAware
03:10PM 40.6520 -116.7670 58° Northeast 510 587 35,000  Level FlightAware
03:11PM 40.6900 -116.6860 58° Northeast 510 587 35,000  Level FlightAware
03:11PM 40.7160 -116.6320 58° Northeast 510 587 35,000  Level FlightAware
03:12PM 40.7720 -116.5130 58° Northeast 510 587 35,000  Level FlightAware
03:12PM 40.7784 -116.1460 89° East 503 579 35,000  Level FlightAware ADS-B
03:13PM 40.8059 -116.0430 71° East 504 580 35,000  Level FlightAware ADS-B
03:14PM 40.8292 -115.9550 71° East 507 583 35,000  Level FlightAware ADS-B
03:14PM 40.8525 -115.8660 71° East 507 583 35,000  Level FlightAware ADS-B
03:15PM 40.8792 -115.7650 71° East 507 583 35,000  Level FlightAware ADS-B
03:15PM 40.9070 -115.6580 71° East 507 583 35,000  Level FlightAware ADS-B
03:16PM 40.9487 -115.4980 71° East 505 581 35,000  Level FlightAware ADS-B
03:17PM 40.9812 -115.3710 71° East 505 581 35,000  Level FlightAware ADS-B
03:17PM 41.0039 -115.2830 71° East 506 582 35,000  Level FlightAware ADS-B
03:18PM 41.0260 -115.1970 71° East 504 580 35,000  Level FlightAware ADS-B
03:18PM 41.0494 -115.1050 71° East 504 580 35,000  Level FlightAware ADS-B
03:19PM 41.0722 -115.0160 71° East 505 581 35,000  Level FlightAware ADS-B
03:19PM 41.0943 -114.9280 72° East 506 582 35,000  Level FlightAware ADS-B
03:20PM 41.1167 -114.8400 71° East 506 582 35,000  Level FlightAware ADS-B
03:21PM 41.1477 -114.7160 72° East 506 582 35,000  Level FlightAware ADS-B
03:21PM 41.1699 -114.6270 72° East 506 582 35,000  Level FlightAware ADS-B
03:22PM 41.1917 -114.5400 72° East 506 582 35,000  Level FlightAware ADS-B
03:22PM 41.2136 -114.4510 72° East 506 582 35,000  Level FlightAware ADS-B
03:23PM 41.2366 -114.3580 72° East 507 583 35,000  Level FlightAware ADS-B
03:23PM 41.2596 -114.2650 72° East 507 583 35,000  Level FlightAware ADS-B
03:24PM 41.2876 -114.1510 72° East 509 586 35,000  Level FlightAware ADS-B
03:24PM 41.3101 -114.0580 72° East 509 586 35,000  Level FlightAware ADS-B
03:25PM 41.3335 -113.9620 72° East 509 586 35,000  Level FlightAware ADS-B
03:25PM 41.3467 -113.9070 72° East 510 587 35,000  Level FlightAware ADS-B
03:25PM 41.3540 -113.8750 73° East 509 586 35,000  Level FlightAware ADS-B
03:26PM 41.3683 -113.7950 77° East 506 582 35,000  Level FlightAware ADS-B
03:26PM 41.3813 -113.7020 79° East 506 582 35,000  Level FlightAware ADS-B
03:27PM 41.3929 -113.6110 80° East 505 581 35,000  Level FlightAware ADS-B
03:27PM 41.4048 -113.5170 80° East 505 581 35,000  Level FlightAware ADS-B
03:28PM 41.4164 -113.4240 81° East 506 582 35,000  Level FlightAware ADS-B
03:28PM 41.4276 -113.3350 80° East 505 581 35,000  Level FlightAware ADS-B
03:29PM 41.4396 -113.2400 80° East 505 581 35,000  Level FlightAware ADS-B
03:29PM 41.4518 -113.1410 81° East 505 581 35,000  Level FlightAware ADS-B
03:30PM 41.4634 -113.0470 81° East 506 582 35,000  Level FlightAware ADS-B
03:30PM 41.4762 -112.9430 81° East 505 581 35,000  Level FlightAware ADS-B
03:31PM 41.4887 -112.8400 81° East 504 580 35,000  Level FlightAware ADS-B
03:32PM 41.5022 -112.7280 81° East 502 578 35,000  Level FlightAware ADS-B
03:32PM 41.5140 -112.6290 81° East 500 575 35,000  Level FlightAware ADS-B
03:33PM 41.5253 -112.5350 81° East 499 574 35,000  Level FlightAware ADS-B
03:33PM 41.5378 -112.4260 81° East 497 572 35,000  Level FlightAware ADS-B
03:34PM 41.5473 -112.3340 82° East 497 572 35,000  Level FlightAware ADS-B
03:34PM 41.5574 -112.2370 82° East 496 571 35,000  Level FlightAware ADS-B
03:35PM 41.5676 -112.1380 82° East 495 570 35,000  Level FlightAware ADS-B
03:35PM 41.5770 -112.0470 82° East 494 568 35,000  Level FlightAware ADS-B
03:36PM 41.5879 -111.9400 82° East 494 568 35,000  Level FlightAware ADS-B
03:36PM 41.5972 -111.8490 82° East 494 568 35,000  Level FlightAware ADS-B
03:37PM 41.6086 -111.7370 82° East 493 567 35,000  Level FlightAware ADS-B
03:38PM 41.6181 -111.6420 82° East 493 567 35,000  Level FlightAware ADS-B
03:38PM 41.6283 -111.5390 82° East 493 567 35,000  Level FlightAware ADS-B
03:39PM 41.6374 -111.4460 83° East 492 566 35,000  Level FlightAware ADS-B
03:39PM 41.6460 -111.3580 83° East 491 565 35,000  Level FlightAware ADS-B
03:40PM 41.6547 -111.2670 83° East 491 565 35,000  Level FlightAware ADS-B
03:40PM 41.6635 -111.1760 83° East 490 564 35,000 60 Level FlightAware ADS-B
03:41PM 41.6721 -111.0840 83° East 491 565 35,100 780 Climbing FlightAware ADS-B
03:41PM 41.6804 -110.9960 83° East 486 559 35,800 840 Climbing FlightAware ADS-B
03:42PM 41.6895 -110.8980 83° East 485 558 36,000 180 Climbing FlightAware ADS-B
03:42PM 41.6978 -110.8090 83° East 482 555 36,000  Level FlightAware ADS-B
03:43PM 41.7059 -110.7200 83° East 482 555 36,000 -600 Level FlightAware ADS-B
03:44PM 41.7190 -110.6330 79° East 489 563 35,200 -540 Descending FlightAware
03:44PM 41.7290 -110.5410 82° East 489 563 35,200  Level FlightAware
03:45PM 41.7380 -110.4490 83° East 489 563 35,200  Level FlightAware
03:45PM 41.7480 -110.3570 82° East 489 563 35,200  Level FlightAware
03:46PM 41.7580 -110.2630 82° East 489 563 35,200  Level FlightAware
03:47PM 41.7680 -110.1710 82° East 489 563 35,200  Level FlightAware
03:47PM 41.7770 -110.0790 82° East 489 563 35,200  Level FlightAware
03:48PM 41.7870 -109.9870 82° East 489 563 35,200  Level FlightAware
03:48PM 41.7960 -109.8950 82° East 489 563 35,200  Level FlightAware
03:49PM 41.8060 -109.8030 82° East 489 563 35,200  Level FlightAware
03:50PM 41.8160 -109.7110 82° East 489 563 35,200  Level FlightAware
03:50PM 41.8250 -109.6190 82° East 489 563 35,200 1,380 Level FlightAware
03:51PM 41.8283 -109.2833 82° East 486 559 37,000 1,020 Climbing Denver Center
03:52PM 41.8439 -109.0808 84° East 485 558 37,000  Level Denver Center
03:53PM 41.8569 -108.9089 84° East 483 556 37,000  Level Denver Center
03:54PM 41.8689 -108.7358 85° East 484 557 37,000  Level Denver Center
03:55PM 41.8844 -108.5353 84° East 484 557 37,000  Level Denver Center
03:56PM 41.8967 -108.3636 84° East 482 555 37,000  Level Denver Center
03:57PM 41.9097 -108.1636 85° East 482 555 37,000  Level Denver Center
03:58PM 41.9214 -107.9906 85° East 484 557 37,000  Level Denver Center
03:59PM 41.9331 -107.8200 85° East 482 555 37,000  Level Denver Center
04:00PM 41.9458 -107.6192 85° East 482 555 37,000  Level Denver Center
04:01PM 41.9572 -107.4481 85° East 482 555 37,000  Level Denver Center
04:06PM 42.0120 -106.4790 85° East 488 562 37,000  Level FlightAware
04:07PM 42.0170 -106.3870 86° East 489 563 37,000  Level FlightAware
04:08PM 42.0230 -106.2710 86° East 490 564 37,000  Level FlightAware
04:08PM 42.0280 -106.1770 86° East 490 564 37,000  Level FlightAware
04:09PM 42.0330 -106.0730 86° East 490 564 37,000  Level FlightAware
04:09PM 42.0390 -105.9590 86° East 490 564 37,000  Level FlightAware
04:10PM 42.0440 -105.8480 86° East 489 563 37,000  Level FlightAware
04:11PM 42.0520 -105.6870 86° East 485 558 37,000  Level FlightAware
04:12PM 42.0580 -105.5620 86° East 485 558 37,000  Level FlightAware
04:12PM 42.0630 -105.4300 87° East 487 560 37,000  Level FlightAware
04:13PM 42.0680 -105.3190 86° East 487 560 37,000  Level FlightAware
04:13PM 42.0720 -105.2260 87° East 487 560 37,000  Level FlightAware
04:14PM 42.0820 -105.0770 85° East 489 563 37,000  Level FlightAware
04:15PM 42.0890 -104.9850 84° East 489 563 37,000  Level FlightAware
04:16PM 42.0970 -104.8920 83° East 489 563 37,000  Level FlightAware
04:16PM 42.1040 -104.7990 84° East 489 563 37,000  Level FlightAware
04:17PM 42.1210 -104.6310 82° East 485 558 37,000  Level FlightAware
04:18PM 42.1340 -104.4860 83° East 484 557 37,000  Level FlightAware
04:18PM 42.1440 -104.3630 84° East 484 557 37,000  Level FlightAware
04:19PM 42.1520 -104.2660 84° East 484 557 37,000  Level FlightAware
04:19PM 42.1610 -104.1740 82° East 484 557 37,000  Level FlightAware
04:20PM 42.1690 -104.0830 83° East 484 557 37,000  Level FlightAware
04:21PM 42.1780 -103.9880 83° East 484 557 37,000  Level FlightAware
04:21PM 42.1860 -103.8970 83° East 484 557 37,000  Level FlightAware
04:22PM 42.1960 -103.7130 86° East 480 552 37,000  Level FlightAware
04:23PM 42.2040 -103.5970 85° East 479 551 37,000  Level FlightAware
04:23PM 42.2130 -103.4850 84° East 479 551 37,000  Level FlightAware
04:24PM 42.2200 -103.3950 84° East 479 551 37,000  Level FlightAware
04:24PM 42.2270 -103.3020 84° East 479 551 37,000  Level FlightAware
04:25PM 42.2340 -103.2110 84° East 479 551 37,000  Level FlightAware
04:26PM 42.2410 -103.1200 84° East 479 551 37,000  Level FlightAware
04:26PM 42.2480 -103.0290 84° East 479 551 37,000  Level FlightAware
04:27PM 42.2550 -102.9380 84° East 479 551 37,000  Level FlightAware
04:27PM 42.2630 -102.8440 83° East 479 551 37,000  Level FlightAware
04:28PM 42.2730 -102.6430 86° East 481 554 37,000  Level FlightAware
04:29PM 42.2810 -102.5510 83° East 481 554 37,000  Level FlightAware
04:29PM 42.2880 -102.4600 84° East 481 554 37,000  Level FlightAware
04:30PM 42.2950 -102.3680 84° East 481 554 37,000  Level FlightAware
04:30PM 42.3020 -102.2770 84° East 481 554 37,000  Level FlightAware
04:31PM 42.3090 -102.1830 84° East 481 554 37,000  Level FlightAware
04:32PM 42.3160 -102.0910 84° East 481 554 37,000  Level FlightAware
04:32PM 42.3240 -101.9940 84° East 481 554 37,000  Level FlightAware
04:33PM 42.3310 -101.9030 84° East 481 554 37,000  Level FlightAware
04:33PM 42.3380 -101.8110 84° East 481 554 37,000  Level FlightAware
04:34PM 42.3450 -101.7200 84° East 481 554 37,000  Level FlightAware
04:35PM 42.3530 -101.6230 84° East 481 554 37,000  Level FlightAware
04:35PM 42.3600 -101.5290 84° East 481 554 37,000  Level FlightAware
04:36PM 42.3670 -101.4370 84° East 481 554 37,000  Level FlightAware
04:36PM 42.3740 -101.3450 84° East 481 554 37,000  Level FlightAware
04:37PM 42.3810 -101.2510 84° East 481 554 37,000  Level FlightAware
04:43PM 42.4209 -99.9825 87° East 491 565 37,000  Level FlightAware ADS-B
04:43PM 42.4249 -99.8904 87° East 491 565 37,000  Level FlightAware ADS-B
04:44PM 42.4288 -99.7988 87° East 492 566 37,000  Level FlightAware ADS-B
04:44PM 42.4328 -99.7050 87° East 493 567 37,000  Level FlightAware ADS-B
04:45PM 42.4366 -99.6118 87° East 493 567 37,000  Level FlightAware ADS-B
04:45PM 42.4405 -99.5147 87° East 493 567 37,000  Level FlightAware ADS-B
04:48PM 42.4580 -99.0522 87° East 489 563 37,000  Level FlightAware ADS-B
04:48PM 42.4614 -98.9579 87° East 489 563 37,000  Level FlightAware ADS-B
04:49PM 42.4645 -98.8650 87° East 488 562 37,000  Level FlightAware ADS-B
04:50PM 42.4747 -98.5932 87° East 489 563 37,000  Level FlightAware ADS-B
04:51PM 42.4796 -98.5014 86° East 489 563 37,000  Level FlightAware ADS-B
04:51PM 42.4846 -98.4071 86° East 490 564 37,000  Level FlightAware ADS-B
04:52PM 42.4895 -98.3088 86° East 490 564 37,000  Level FlightAware ADS-B
04:52PM 42.4938 -98.2172 86° East 490 564 37,000  Level FlightAware ADS-B
04:53PM 42.4981 -98.1252 86° East 491 565 37,000  Level FlightAware ADS-B
04:53PM 42.5023 -98.0331 86° East 491 565 37,000  Level FlightAware ADS-B
04:54PM 42.5064 -97.9408 87° East 490 564 37,000  Level FlightAware ADS-B
04:54PM 42.5104 -97.8492 87° East 489 563 37,000  Level FlightAware ADS-B
04:55PM 42.5144 -97.7572 87° East 489 563 37,000  Level FlightAware ADS-B
04:55PM 42.5183 -97.6652 87° East 488 562 37,000  Level FlightAware ADS-B
04:56PM 42.5221 -97.5737 87° East 487 560 37,000  Level FlightAware ADS-B
04:56PM 42.5260 -97.4802 87° East 487 560 37,000  Level FlightAware ADS-B
04:57PM 42.5297 -97.3864 87° East 486 559 37,000  Level FlightAware ADS-B
04:57PM 42.5333 -97.2955 87° East 486 559 37,000  Level FlightAware ADS-B
04:58PM 42.5369 -97.2043 87° East 486 559 37,000  Level FlightAware ADS-B
04:58PM 42.5405 -97.1098 87° East 486 559 37,000  Level FlightAware ADS-B
04:59PM 42.5438 -97.0186 87° East 486 559 37,000  Level FlightAware ADS-B
04:59PM 42.5476 -96.9143 87° East 486 559 37,000  Level FlightAware ADS-B
05:00PM 42.5508 -96.8231 87° East 485 558 37,000  Level FlightAware ADS-B
05:00PM 42.5545 -96.7163 87° East 485 558 37,000  Level FlightAware ADS-B
05:01PM 42.5575 -96.6255 87° East 485 558 37,000 360 Level FlightAware ADS-B
05:01PM 42.5607 -96.5308 87° East 483 556 37,400 960 Climbing FlightAware ADS-B
05:02PM 42.5636 -96.4394 88° East 479 551 38,000 1,020 Climbing FlightAware ADS-B
05:02PM 42.5667 -96.3414 88° East 477 549 38,500 840 Climbing FlightAware ADS-B
05:03PM 42.5694 -96.2508 88° East 476 548 38,900 420 Climbing FlightAware ADS-B
05:04PM 42.5723 -96.1545 88° East 474 545 39,000 60 Climbing FlightAware ADS-B
05:04PM 42.5748 -96.0645 88° East 472 543 39,000  Level FlightAware ADS-B
05:05PM 42.5773 -95.9751 88° East 473 544 39,000  Level FlightAware ADS-B
05:05PM 42.5798 -95.8847 88° East 475 547 39,000  Level FlightAware ADS-B
05:06PM 42.5821 -95.7952 88° East 476 548 39,000  Level FlightAware ADS-B
05:06PM 42.5844 -95.7053 88° East 477 549 39,000 60 Level FlightAware ADS-B
05:07PM 42.5866 -95.6159 88° East 477 549 39,100  Climbing FlightAware ADS-B
05:07PM 42.5888 -95.5254 88° East 478 550 39,000 -120 Descending FlightAware ADS-B
05:08PM 42.5909 -95.4339 88° East 478 550 39,000  Level FlightAware ADS-B
05:08PM 42.5929 -95.3431 88° East 478 550 39,000  Level FlightAware ADS-B
05:09PM 42.5948 -95.2534 88° East 478 550 39,000  Level FlightAware ADS-B
05:09PM 42.5967 -95.1626 88° East 478 550 39,000  Level FlightAware ADS-B
05:10PM 42.5988 -95.0572 88° East 479 551 39,000  Level FlightAware ADS-B
05:10PM 42.6006 -94.9621 88° East 478 550 39,000  Level FlightAware ADS-B
05:11PM 42.6023 -94.8709 89° East 477 549 39,000  Level FlightAware ADS-B
05:11PM 42.6041 -94.7655 89° East 477 549 39,000  Level FlightAware ADS-B
05:12PM 42.6057 -94.6718 89° East 477 549 39,000  Level FlightAware ADS-B
05:12PM 42.6071 -94.5820 89° East 477 549 39,000  Level FlightAware ADS-B
05:13PM 42.6084 -94.4916 89° East 476 548 39,000  Level FlightAware ADS-B
05:13PM 42.6097 -94.4026 89° East 476 548 39,000  Level FlightAware ADS-B
05:14PM 42.6109 -94.3109 89° East 476 548 39,000  Level FlightAware ADS-B
05:14PM 42.6119 -94.2198 89° East 475 547 39,000  Level FlightAware ADS-B
05:15PM 42.6127 -94.1304 89° East 475 547 39,000  Level FlightAware ADS-B
05:15PM 42.6133 -94.0382 89° East 475 547 39,000  Level FlightAware ADS-B
05:16PM 42.6140 -93.9418 89° East 475 547 39,000  Level FlightAware ADS-B
05:16PM 42.6145 -93.8522 90° East 475 547 39,000  Level FlightAware ADS-B
05:17PM 42.6151 -93.7547 89° East 475 547 39,000  Level FlightAware ADS-B
05:17PM 42.6155 -93.6653 90° East 475 547 39,000  Level FlightAware ADS-B
05:18PM 42.6160 -93.4990 90° East 475 547 39,000  Level FlightAware
05:19PM 42.6160 -93.4060 90° East 475 547 39,000  Level FlightAware
05:20PM 42.6170 -93.2990 89° East 475 547 39,000  Level FlightAware
05:20PM 42.6170 -93.2110 90° East 476 548 39,000  Level FlightAware
05:21PM 42.6170 -93.0830 90° East 477 549 39,000  Level FlightAware
05:21PM 42.6170 -92.9970 90° East 478 550 39,000  Level FlightAware
05:22PM 42.6160 -92.8820 91° East 478 550 39,000  Level FlightAware
05:22PM 42.6160 -92.7700 90° East 479 551 39,000  Level FlightAware
05:23PM 42.6160 -92.6620 90° East 479 551 39,000  Level FlightAware
05:24PM 42.6150 -92.5660 91° East 480 552 39,000  Level FlightAware
05:24PM 42.6150 -92.4630 90° East 480 552 39,000  Level FlightAware
05:25PM 42.6140 -92.3500 91° East 480 552 39,000  Level FlightAware
05:25PM 42.6130 -92.2470 91° East 480 552 39,000  Level FlightAware
05:26PM 42.6120 -92.1460 91° East 480 552 39,000  Level FlightAware
05:27PM 42.6110 -92.0370 91° East 481 554 39,000  Level FlightAware
05:27PM 42.6100 -91.9460 91° East 483 556 39,000  Level FlightAware
05:28PM 42.6090 -91.8260 91° East 484 557 39,000  Level FlightAware
05:28PM 42.6080 -91.7220 91° East 484 557 39,000  Level FlightAware
05:29PM 42.6060 -91.6080 91° East 485 558 39,000  Level FlightAware
05:29PM 42.6050 -91.5170 91° East 486 559 39,000  Level FlightAware
05:30PM 42.6030 -91.4090 91° East 486 559 39,000  Level FlightAware
05:31PM 42.6010 -91.3020 91° East 487 560 39,000  Level FlightAware
05:31PM 42.6000 -91.1900 91° East 487 560 39,000  Level FlightAware
05:32PM 42.5980 -91.0890 92° East 487 560 39,000  Level FlightAware
05:32PM 42.5960 -90.9800 91° East 487 560 39,000  Level FlightAware
05:33PM 42.5940 -90.8660 91° East 487 560 39,000  Level FlightAware
05:33PM 42.5920 -90.7670 92° East 487 560 39,000  Level FlightAware
05:34PM 42.5910 -90.6350 91° East 484 557 39,000  Level FlightAware
05:35PM 42.5920 -90.5310 89° East 484 557 39,000  Level FlightAware
05:35PM 42.5940 -90.4170 89° East 484 557 39,000  Level FlightAware
05:36PM 42.5940 -90.3180 90° East 485 558 39,000  Level FlightAware
05:37PM 42.5950 -90.2160 89° East 484 557 39,000  Level FlightAware
05:37PM 42.5950 -90.1030 90° East 483 556 39,000  Level FlightAware
05:38PM 42.5950 -89.9930 90° East 481 554 39,000  Level FlightAware
05:38PM 42.5950 -89.9010 90° East 481 554 39,000  Level FlightAware
05:39PM 42.5950 -89.7970 90° East 480 552 39,000  Level FlightAware
05:39PM 42.5950 -89.7740 90° East 480 552 39,000  Level FlightAware
05:40PM 42.5950 -89.6800 90° East 480 552 39,000  Level FlightAware
05:41PM 42.5950 -89.4780 90° East 479 551 39,000  Level FlightAware
05:41PM 42.5950 -89.3690 90° East 479 551 39,000  Level FlightAware
05:42PM 42.5940 -89.2650 91° East 479 551 39,000  Level FlightAware
05:42PM 42.5940 -89.1660 90° East 479 551 39,000  Level FlightAware
05:43PM 42.5930 -89.0610 91° East 478 550 39,000  Level FlightAware
05:44PM 42.5930 -88.9520 90° East 477 549 39,000  Level FlightAware
05:44PM 42.5920 -88.8540 91° East 477 549 39,000  Level FlightAware
05:45PM 42.5910 -88.7480 91° East 477 549 39,000  Level FlightAware
05:45PM 42.5900 -88.6400 91° East 477 549 39,000  Level FlightAware
05:46PM 42.5890 -88.5280 91° East 477 549 39,000  Level FlightAware
05:46PM 42.5880 -88.4360 91° East 477 549 39,000  Level FlightAware
05:47PM 42.5870 -88.3260 91° East 476 548 39,000  Level FlightAware
05:48PM 42.5850 -88.2170 91° East 476 548 39,000  Level FlightAware
05:48PM 42.5840 -88.1150 91° East 476 548 39,000  Level FlightAware
05:49PM 42.5820 -88.0160 92° East 476 548 39,000  Level FlightAware
05:49PM 42.5810 -87.9050 91° East 475 547 39,000  Level FlightAware
05:50PM 42.5790 -87.7990 91° East 468 539 39,000  Level FlightAware
05:51PM 42.5770 -87.7140 92° East 463 533 39,000  Level FlightAware
05:51PM 42.5760 -87.6080 91° East 459 528 39,000  Level FlightAware
05:52PM 42.5740 -87.5030 91° East 459 528 39,000  Level FlightAware
05:52PM 42.5710 -87.3980 92° East 461 531 39,000 60 Level FlightAware
05:53PM 42.5690 -87.3030 92° East 461 531 39,100  Climbing FlightAware
05:53PM 42.5670 -87.2040 92° East 463 533 39,000 -120 Descending FlightAware
05:54PM 42.5650 -87.0960 91° East 465 535 39,000  Level FlightAware
05:55PM 42.5620 -86.9910 92° East 466 536 39,000  Level FlightAware
05:55PM 42.5600 -86.9060 92° East 467 537 39,000 60 Level FlightAware
05:56PM 42.5580 -86.8060 92° East 469 540 39,100  Climbing FlightAware
05:56PM 42.5550 -86.6930 92° East 470 541 39,000 -120 Descending FlightAware
05:57PM 42.5520 -86.5680 92° East 471 542 39,000  Level FlightAware
05:58PM 42.5490 -86.4790 93° East 473 544 39,000  Level FlightAware
05:58PM 42.5460 -86.3680 92° East 474 545 39,000  Level FlightAware
05:59PM 42.5420 -86.2550 93° East 475 547 39,000  Level FlightAware
05:59PM 42.5390 -86.1480 92° East 475 547 39,000  Level FlightAware
06:00PM 42.5360 -86.0510 92° East 475 547 39,000  Level FlightAware
06:01PM 42.5330 -85.9460 92° East 475 547 39,000  Level FlightAware
06:01PM 42.5290 -85.8400 93° East 476 548 39,000  Level FlightAware
06:02PM 42.5250 -85.7260 93° East 476 548 39,000  Level FlightAware
06:02PM 42.5220 -85.6310 92° East 476 548 39,000  Level FlightAware
06:03PM 42.5180 -85.5220 93° East 477 549 39,000  Level FlightAware
06:04PM 42.5140 -85.4160 93° East 477 549 39,000  Level FlightAware
06:04PM 42.5100 -85.3210 93° East 478 550 39,000  Level FlightAware
06:05PM 42.5060 -85.2130 93° East 479 551 39,000  Level FlightAware
06:05PM 42.5010 -85.1020 93° East 480 552 39,000  Level FlightAware
06:06PM 42.4970 -84.9980 93° East 480 552 39,000  Level FlightAware
06:06PM 42.4930 -84.8940 93° East 480 552 39,000  Level FlightAware
06:07PM 42.4880 -84.7910 94° East 482 555 39,000  Level FlightAware
06:08PM 42.4820 -84.6870 94° East 483 556 39,000  Level FlightAware
06:08PM 42.4760 -84.5830 94° East 485 558 39,000  Level FlightAware
06:09PM 42.4690 -84.4840 95° East 487 560 39,000  Level FlightAware
06:09PM 42.4620 -84.3680 95° East 489 563 39,000  Level FlightAware
06:10PM 42.4560 -84.2740 95° East 490 564 39,000  Level FlightAware
06:11PM 42.4490 -84.1600 95° East 492 566 39,000  Level FlightAware
06:11PM 42.4420 -84.0500 95° East 498 573 39,000  Level FlightAware
06:12PM 42.4350 -83.9450 95° East 502 578 39,000  Level FlightAware
06:12PM 42.4270 -83.8310 95° East 505 581 39,000  Level FlightAware
06:13PM 42.4200 -83.7170 95° East 506 582 39,000  Level FlightAware
06:13PM 42.4120 -83.6000 95° East 503 579 39,000  Level FlightAware
06:14PM 42.4040 -83.4920 96° East 501 577 39,000  Level FlightAware
06:15PM 42.3970 -83.3860 95° East 501 577 39,000  Level FlightAware
06:15PM 42.3890 -83.2820 96° East 497 572 39,000  Level FlightAware
06:16PM 42.3810 -83.1700 95° East 495 570 39,000  Level FlightAware
06:16PM 42.3730 -83.0660 96° East 493 567 39,000  Level FlightAware
06:17PM 42.3650 -82.9530 95° East 491 565 39,000  Level FlightAware
06:18PM 42.3580 -82.8580 96° East 490 564 39,000  Level FlightAware
06:18PM 42.3490 -82.7430 96° East 490 564 39,000  Level FlightAware
06:19PM 42.3410 -82.6370 96° East 490 564 39,000  Level FlightAware
06:19PM 42.3330 -82.5400 96° East 490 564 39,000  Level FlightAware
06:20PM 42.3240 -82.4270 96° East 490 564 39,000  Level FlightAware
06:20PM 42.3160 -82.3190 96° East 490 564 39,000  Level FlightAware
06:21PM 42.3070 -82.2160 97° East 491 565 39,000  Level FlightAware
06:22PM 42.3010 -82.1370 96° East 491 565 39,000  Level FlightAware
06:22PM 42.2910 -82.0210 97° East 492 566 39,000  Level FlightAware
06:23PM 42.2830 -81.9210 96° East 492 566 39,000  Level FlightAware
06:23PM 42.2730 -81.8030 96° East 493 567 39,000  Level FlightAware
06:24PM 42.2640 -81.7070 97° East 494 568 39,000  Level FlightAware
06:24PM 42.2560 -81.6060 96° East 496 571 39,000  Level FlightAware
06:25PM 42.2440 -81.4770 97° East 498 573 39,000  Level FlightAware
06:26PM 42.2370 -81.3890 96° East 500 575 39,000  Level FlightAware
06:26PM 42.2260 -81.2700 97° East 502 578 39,000  Level FlightAware
06:27PM 42.2160 -81.1670 97° East 503 579 39,000  Level FlightAware
06:28PM 42.2040 -81.0260 97° East 503 579 39,000  Level FlightAware
06:28PM 42.1950 -80.9350 98° East 502 578 39,000  Level FlightAware
06:29PM 42.1830 -80.8050 97° East 503 579 39,000  Level FlightAware
06:29PM 42.1720 -80.6870 97° East 502 578 39,000  Level FlightAware
06:30PM 42.1620 -80.5860 98° East 502 578 39,000  Level FlightAware
06:31PM 42.1510 -80.4690 97° East 501 577 39,000  Level FlightAware
06:31PM 42.1400 -80.3620 98° East 501 577 39,000  Level FlightAware
06:32PM 42.1300 -80.2600 97° East 500 575 39,000  Level FlightAware
06:32PM 42.1190 -80.1430 97° East 500 575 39,000  Level FlightAware
06:33PM 42.1080 -80.0380 98° East 499 574 39,000  Level FlightAware
06:34PM 42.0960 -79.9220 98° East 499 574 39,000  Level FlightAware
06:34PM 42.0860 -79.8210 98° East 498 573 39,000  Level FlightAware
06:35PM 42.0700 -79.6670 98° East 497 572 39,000  Level FlightAware
06:35PM 42.0580 -79.5570 98° East 496 571 39,000  Level FlightAware
06:36PM 42.0480 -79.4610 98° East 496 571 39,000  Level FlightAware
06:37PM 42.0360 -79.3500 98° East 497 572 39,000  Level FlightAware
06:37PM 42.0240 -79.2410 98° East 498 573 39,000  Level FlightAware
06:38PM 42.0120 -79.1310 98° East 500 575 39,000  Level FlightAware
06:38PM 42.0020 -79.0320 98° East 500 575 39,000  Level FlightAware
06:39PM 41.9890 -78.9220 99° East 501 577 39,000  Level FlightAware
06:39PM 41.9770 -78.8090 98° East 502 578 39,000  Level FlightAware
06:40PM 41.9640 -78.6970 99° East 503 579 39,000  Level FlightAware
06:41PM 41.9530 -78.6000 99° East 503 579 39,000  Level FlightAware
06:41PM 41.9400 -78.4840 99° East 503 579 39,000  Level FlightAware
06:42PM 41.9270 -78.3770 99° East 502 578 39,000  Level FlightAware
06:42PM 41.9160 -78.2790 99° East 504 580 39,000  Level FlightAware
06:43PM 41.9000 -78.1440 99° East 505 581 39,000  Level FlightAware
06:44PM 41.8870 -78.0330 99° East 505 581 39,000  Level FlightAware
06:44PM 41.8740 -77.9290 99° East 505 581 39,000  Level FlightAware
06:45PM 41.8550 -77.8180 103° East 508 585 39,000 60 Level FlightAware
06:45PM 41.8290 -77.7120 108° East 508 585 39,100  Climbing FlightAware
06:46PM 41.8010 -77.6090 110° East 507 583 39,000 -120 Descending FlightAware
06:47PM 41.7730 -77.5040 110° East 505 581 39,000  Level FlightAware
06:47PM 41.7490 -77.4150 110° East 505 581 39,000 60 Level FlightAware
06:48PM 41.7180 -77.2990 110° East 503 579 39,100  Climbing FlightAware
06:48PM 41.6900 -77.1940 110° East 503 579 39,000 -120 Descending FlightAware
06:49PM 41.6650 -77.0990 109° East 502 578 39,000  Level FlightAware
06:50PM 41.6360 -76.9950 110° East 502 578 39,000  Level FlightAware
06:50PM 41.6080 -76.8910 110° East 503 579 39,000  Level FlightAware
06:51PM 41.5860 -76.8100 110° East 503 579 39,000  Level FlightAware
06:51PM 41.5540 -76.6930 110° East 503 579 39,000  Level FlightAware
06:52PM 41.5250 -76.5870 110° East 503 579 39,000  Level FlightAware
06:52PM 41.4950 -76.4810 111° Southeast 504 580 39,000  Level FlightAware
06:53PM 41.4710 -76.3920 110° East 504 580 39,000 -480 Level FlightAware
06:54PM 41.4420 -76.2890 111° Southeast 505 581 38,500 -1,860 Descending FlightAware
06:54PM 41.4110 -76.1790 111° Southeast 507 583 36,800 -2,820 Descending FlightAware
06:55PM 41.3840 -76.0820 110° East 508 585 35,200 -2,880 Descending FlightAware
06:55PM 41.3540 -75.9770 111° Southeast 509 586 33,500 -3,060 Descending FlightAware
06:56PM 41.3240 -75.8700 110° East 512 589 31,500 -3,360 Descending FlightAware
06:56PM 41.2970 -75.7760 111° Southeast 516 594 29,700 -3,180 Descending FlightAware
06:57PM 41.2670 -75.6740 111° Southeast 512 589 27,900 -2,820 Descending FlightAware
06:58PM 41.2340 -75.5710 113° Southeast 503 579 26,300 -2,760 Descending FlightAware
06:58PM 41.2000 -75.4710 114° Southeast 496 571 24,700 -2,700 Descending FlightAware
06:59PM 41.1680 -75.3760 114° Southeast 489 563 23,300 -1,500 Descending FlightAware
06:59PM 41.1360 -75.2810 114° Southeast 482 555 23,000 -300 Descending FlightAware
07:00PM 41.1020 -75.1810 114° Southeast 480 552 23,000  Level FlightAware
07:01PM 41.0710 -75.0880 114° Southeast 482 555 23,000  Level FlightAware
07:01PM 41.0400 -74.9980 115° Southeast 483 556 23,000  Level FlightAware
07:02PM 41.0070 -74.8980 114° Southeast 484 557 23,000 -180 Level FlightAware
07:02PM 40.9880 -74.7970 104° East 483 556 22,800 -840 Descending FlightAware
07:03PM 40.9825 -74.7532 99° East 484 557 22,300 -2,280 Descending FlightAware ADS-B
07:03PM 40.9717 -74.6528 98° East 473 544 20,900 -2,220 Descending FlightAware ADS-B
07:04PM 40.9560 -74.5060 98° East 449 517 19,100 -1,320 Descending FlightAware
07:05PM 40.9460 -74.4140 98° East 405 466 19,000 -120 Descending FlightAware
07:05PM 40.9388 -74.3313 97° East 370 426 19,000  Level FlightAware ADS-B
07:06PM 40.9425 -74.2925 83° East 360 414 19,000  Level FlightAware ADS-B
07:06PM 40.9480 -74.2160 85° East 359 413 19,000  Level FlightAware ADS-B
07:06PM 40.9455 -74.2038 105° East 361 415 19,000  Level FlightAware ADS-B
07:06PM 40.9362 -74.1785 116° Southeast 361 415 19,000  Level FlightAware ADS-B
07:07PM 40.9074 -74.1407 135° Southeast 358 412 19,000  Level FlightAware ADS-B
07:07PM 40.8577 -74.1075 153° Southeast 356 410 19,000 -480 Level FlightAware ADS-B
07:08PM 40.8135 -74.0794 154° Southeast 350 403 18,500 -1,800 Descending FlightAware ADS-B
07:08PM 40.7696 -74.0513 154° Southeast 344 396 17,200 -2,640 Descending FlightAware ADS-B
07:09PM 40.7030 -74.0080 154° Southeast 330 380 15,100 -2,580 Descending FlightAware
07:10PM 40.6560 -73.9780 154° Southeast 330 380 13,700 -2,160 Descending FlightAware
07:10PM 40.6327 -73.9638 155° Southeast 329 379 13,300 -1,920 Descending FlightAware ADS-B
07:11PM 40.5620 -73.9210 155° Southeast 311 358 11,500 -2,220 Descending FlightAware
07:12PM 40.5130 -73.8930 157° South 299 344 10,000 -2,400 Descending FlightAware
07:12PM 40.5040 -73.8860 149° Southeast 298 343 9,700 -2,100 Descending FlightAware
07:12PM 40.4920 -73.8720 138° Southeast 296 341 9,300 -2,100 Descending FlightAware
07:12PM 40.4860 -73.8590 121° Southeast 294 338 9,000 -2,100 Descending FlightAware
07:12PM 40.4780 -73.8410 120° Southeast 295 339 8,600 -1,680 Descending FlightAware
07:13PM 40.4630 -73.8020 117° Southeast 294 338 8,000 -1,080 Descending FlightAware
07:13PM 40.4570 -73.7860 116° Southeast 293 337 8,000  Level FlightAware
07:13PM 40.4430 -73.7510 118° Southeast 292 336 8,000  Level FlightAware
07:14PM 40.4310 -73.7190 116° Southeast 291 335 8,000  Level FlightAware
07:14PM 40.4210 -73.6930 117° Southeast 289 333 8,000  Level FlightAware
07:14PM 40.4090 -73.6630 118° Southeast 289 333 8,000  Level FlightAware
07:14PM 40.4040 -73.6490 115° Southeast 289 333 8,000  Level FlightAware
07:15PM 40.3920 -73.6080 111° Southeast 289 333 8,000  Level FlightAware
07:15PM 40.4000 -73.5710 74° East 286 329 8,000  Level FlightAware
07:15PM 40.4030 -73.5660 52° Northeast 285 328 8,000  Level FlightAware
07:15PM 40.4130 -73.5550 40° Northeast 284 327 8,000  Level FlightAware
07:16PM 40.4310 -73.5420 29° Northeast 284 327 8,000 -240 Level FlightAware
07:16PM 40.4490 -73.5300 27° Northeast 284 327 7,900 -780 Descending FlightAware
07:16PM 40.4760 -73.5110 28° Northeast 280 322 7,500 -1,200 Descending FlightAware
07:17PM 40.5100 -73.4880 27° Northeast 279 321 6,900 -1,260 Descending FlightAware
07:17PM 40.5250 -73.4770 29° Northeast 278 320 6,600 -1,380 Descending FlightAware
07:17PM 40.5510 -73.4600 26° Northeast 276 318 6,100 -1,380 Descending FlightAware
07:18PM 40.5710 -73.4470 26° Northeast 274 315 5,700 -1,320 Descending FlightAware
07:18PM 40.5910 -73.4330 28° Northeast 272 313 5,300 -1,380 Descending FlightAware
07:18PM 40.6240 -73.4130 25° Northeast 268 308 4,700 -1,260 Descending FlightAware
07:19PM 40.6380 -73.4080 15° North 267 307 4,500 -1,140 Descending FlightAware
07:19PM 40.6570 -73.4050 North 265 305 4,200 -900 Descending FlightAware
07:19PM 40.6810 -73.4010 North 263 303 4,000 -420 Descending FlightAware
07:19PM 40.6960 -73.3990 North 263 303 4,000  Level FlightAware
07:20PM 40.7250 -73.3940 North 264 304 4,000  Level FlightAware
07:20PM 40.7350 -73.3930 North 264 304 4,000  Level FlightAware
07:20PM 40.7610 -73.4070 338° Northwest 262 302 4,000  Level FlightAware
07:20PM 40.7670 -73.4160 311° West 261 300 4,000  Level FlightAware
07:21PM 40.7820 -73.4440 305° West 256 295 4,000  Level FlightAware
07:21PM 40.7920 -73.4630 305° West 242 278 4,000 -180 Level FlightAware
07:21PM 40.8040 -73.4850 306° West 225 259 3,900 -360 Descending FlightAware
07:22PM 40.8140 -73.5030 306° West 219 252 3,800 -720 Descending FlightAware
07:22PM 40.8260 -73.5250 306° West 214 246 3,500 -900 Descending FlightAware
07:22PM 40.8280 -73.5360 284° West 214 246 3,400 -960 Descending FlightAware
07:22PM 40.8300 -73.5590 277° West 211 243 3,100 -900 Descending FlightAware
07:23PM 40.8290 -73.5700 263° West 209 241 3,000 -240 Descending FlightAware
07:23PM 40.8250 -73.5880 254° West 210 242 3,000  Level FlightAware
07:23PM 40.8210 -73.6000 246° West 211 243 3,000  Level FlightAware
07:23PM 40.8110 -73.6160 230° Southwest 206 237 3,000  Level FlightAware
07:23PM 40.8030 -73.6270 226° Southwest 196 226 3,000  Level FlightAware
07:24PM 40.7870 -73.6440 219° Southwest 172 198 3,000 -300 Level FlightAware
07:24PM 40.7730 -73.6550 211° Southwest 171 197 2,800 -600 Descending FlightAware
07:24PM 40.7650 -73.6610 210° Southwest 172 198 2,700 -840 Descending FlightAware
07:25PM 40.7490 -73.6740 212° Southwest 168 193 2,300 -960 Descending FlightAware
07:25PM 40.7350 -73.6840 208° Southwest 167 192 2,000 -1,020 Descending FlightAware
07:25PM 40.7280 -73.6900 213° Southwest 164 189 1,800 -900 Descending FlightAware
07:26PM 40.7130 -73.7020 211° Southwest 150 173 1,500 -720 Descending FlightAware
07:26PM 40.7020 -73.7100 209° Southwest 126 145 1,300 -600 Descending FlightAware
07:26PM 40.6920 -73.7180 211° Southwest 118 136 1,100 -720 Descending FlightAware
07:27PM 40.6850 -73.7240 213° Southwest 119 137 900 -660 Descending FlightAware
07:27PM 40.6750 -73.7320 211° Southwest 119 137 700 -600 Descending FlightAware
07:27PM 40.6650 -73.7390 208° Southwest 119 137 500 -540 Descending FlightAware
07:28PM 40.6580 -73.7450 213° Southwest 121 139 400 -720 Descending FlightAware
07:28PM 40.6480 -73.7520 208° Southwest 121 139 100 -900 Descending FlightAware
07:28PM 40.6380 -73.7600 211° Southwest 105 121 -300 Descending FlightAware